createdAt,value
2023-03-31T00:00:50.258Z,2.75
2023-03-31T00:01:50.283Z,2.77
2023-03-31T00:02:50.340Z,2.80
2023-03-31T00:03:50.370Z,2.76
2023-03-31T00:04:50.286Z,2.75
2023-03-31T00:05:50.240Z,2.79
2023-03-31T00:06:50.242Z,2.80
2023-03-31T00:07:50.244Z,2.73
2023-03-31T00:08:50.235Z,2.80
2023-03-31T00:09:50.230Z,2.73
2023-03-31T00:10:50.236Z,2.81
2023-03-31T00:11:50.220Z,2.78
2023-03-31T00:12:50.234Z,2.81
2023-03-31T00:13:50.244Z,2.78
2023-03-31T00:14:50.224Z,2.72
2023-03-31T00:15:50.222Z,2.72
2023-03-31T00:16:50.243Z,2.72
2023-03-31T00:17:50.275Z,2.71
2023-03-31T00:18:50.218Z,2.75
2023-03-31T00:19:50.213Z,2.74
2023-03-31T00:20:50.195Z,2.73
2023-03-31T00:21:50.197Z,2.75
2023-03-31T00:22:50.200Z,2.77
2023-03-31T00:23:50.205Z,2.75
2023-03-31T00:24:50.200Z,2.70
2023-03-31T00:25:50.204Z,2.75
2023-03-31T00:26:50.192Z,2.72
2023-03-31T00:27:50.194Z,2.76
2023-03-31T00:28:50.214Z,2.71
2023-03-31T00:29:50.204Z,2.71
2023-03-31T00:30:50.206Z,2.68
2023-03-31T00:31:50.229Z,2.69
2023-03-31T00:32:50.331Z,2.69
2023-03-31T00:33:50.185Z,2.69
2023-03-31T00:34:50.204Z,2.70
2023-03-31T00:35:50.218Z,2.64
2023-03-31T00:36:50.183Z,2.67
2023-03-31T00:37:50.187Z,2.65
2023-03-31T00:38:50.178Z,2.68
2023-03-31T00:39:50.216Z,2.68
2023-03-31T00:40:52.603Z,2.69
2023-03-31T00:41:50.117Z,2.67
2023-03-31T00:42:50.048Z,2.67
2023-03-31T00:43:50.025Z,2.71
2023-03-31T00:44:49.913Z,2.70
2023-03-31T00:45:49.895Z,2.69
2023-03-31T00:46:50.577Z,2.63
2023-03-31T00:47:49.728Z,2.67
2023-03-31T00:48:49.624Z,2.68
2023-03-31T00:49:49.573Z,2.69
2023-03-31T00:50:49.503Z,2.64
2023-03-31T00:51:49.415Z,2.64
2023-03-31T00:52:49.358Z,2.63
2023-03-31T00:53:49.299Z,2.61
2023-03-31T00:54:49.230Z,2.58
2023-03-31T00:55:49.178Z,2.59
2023-03-31T00:56:49.162Z,2.55
2023-03-31T00:57:49.022Z,2.58
2023-03-31T00:58:48.944Z,2.58
2023-03-31T00:59:48.910Z,2.56
2023-03-31T01:00:48.846Z,2.61
2023-03-31T01:01:48.800Z,2.57
2023-03-31T01:02:48.698Z,2.60
2023-03-31T01:03:48.689Z,2.55
2023-03-31T01:04:48.560Z,2.57
2023-03-31T01:05:48.466Z,2.58
2023-03-31T01:06:48.417Z,2.48
2023-03-31T01:07:48.329Z,2.54
2023-03-31T01:08:48.261Z,2.58
2023-03-31T01:09:48.265Z,2.51
2023-03-31T01:10:48.264Z,2.52
2023-03-31T01:11:48.258Z,2.59
2023-03-31T01:12:48.263Z,2.51
2023-03-31T01:13:48.264Z,2.51
2023-03-31T01:14:48.270Z,2.41
2023-03-31T01:15:48.165Z,2.42
2023-03-31T01:16:48.145Z,2.43
2023-03-31T01:17:48.157Z,2.43
2023-03-31T01:18:48.037Z,2.48
2023-03-31T01:19:47.904Z,2.52
2023-03-31T01:20:47.814Z,2.50
2023-03-31T01:21:47.730Z,2.54
2023-03-31T01:22:47.699Z,2.46
2023-03-31T01:23:47.596Z,2.46
2023-03-31T01:24:47.584Z,2.46
2023-03-31T01:25:47.593Z,2.38
2023-03-31T01:26:47.565Z,2.33
2023-03-31T01:27:47.559Z,2.36
2023-03-31T01:28:47.571Z,2.43
2023-03-31T01:29:47.562Z,2.39
2023-03-31T01:30:47.564Z,2.36
2023-03-31T01:31:47.601Z,2.34
2023-03-31T01:32:47.617Z,2.37
2023-03-31T01:33:47.561Z,2.28
2023-03-31T01:34:47.546Z,2.42
2023-03-31T01:35:47.577Z,2.31
2023-03-31T01:36:47.552Z,2.36
2023-03-31T01:37:47.557Z,2.41
2023-03-31T01:38:47.542Z,2.44
2023-03-31T01:39:47.555Z,2.33
2023-03-31T01:40:47.559Z,2.28
2023-03-31T01:41:47.543Z,2.32
2023-03-31T01:42:47.550Z,2.34
2023-03-31T01:43:47.538Z,2.31
2023-03-31T01:44:47.530Z,2.40
2023-03-31T01:45:47.542Z,2.32
2023-03-31T01:46:47.600Z,2.39
2023-03-31T01:47:47.578Z,2.34
2023-03-31T01:48:47.532Z,2.32
2023-03-31T01:49:47.587Z,2.33
2023-03-31T01:50:47.541Z,2.21
2023-03-31T01:51:47.599Z,2.25
2023-03-31T01:52:47.511Z,2.33
2023-03-31T01:53:47.501Z,2.32
2023-03-31T01:54:47.510Z,2.27
2023-03-31T01:55:47.495Z,2.31
2023-03-31T01:56:47.556Z,2.27
2023-03-31T01:57:47.493Z,2.25
2023-03-31T01:58:47.469Z,2.19
2023-03-31T01:59:47.481Z,2.25
2023-03-31T02:00:47.464Z,2.21
2023-03-31T02:01:47.473Z,2.31
2023-03-31T02:02:47.518Z,2.26
2023-03-31T02:03:47.489Z,2.22
2023-03-31T02:04:47.469Z,2.20
2023-03-31T02:05:47.457Z,2.25
2023-03-31T02:06:47.480Z,2.31
2023-03-31T02:07:47.481Z,2.21
2023-03-31T02:08:47.448Z,2.30
2023-03-31T02:09:47.441Z,2.27
2023-03-31T02:10:47.460Z,2.23
2023-03-31T02:11:47.464Z,2.23
2023-03-31T02:12:47.447Z,2.28
2023-03-31T02:13:47.465Z,2.21
2023-03-31T02:14:47.449Z,2.15
2023-03-31T02:15:47.469Z,2.22
2023-03-31T02:16:47.661Z,2.16
2023-03-31T02:17:47.516Z,2.16
2023-03-31T02:18:47.447Z,2.18
2023-03-31T02:19:47.442Z,2.18
2023-03-31T02:20:47.498Z,2.13
2023-03-31T02:21:47.366Z,2.14
2023-03-31T02:22:47.333Z,2.14
2023-03-31T02:23:47.263Z,2.16
2023-03-31T02:24:47.186Z,2.18
2023-03-31T02:25:47.138Z,2.22
2023-03-31T02:26:47.057Z,2.16
2023-03-31T02:27:46.991Z,2.15
2023-03-31T02:28:46.953Z,2.14
2023-03-31T02:29:46.895Z,2.16
2023-03-31T02:30:46.835Z,2.18
2023-03-31T02:31:46.818Z,2.14
2023-03-31T02:32:46.872Z,2.16
2023-03-31T02:33:46.774Z,2.16
2023-03-31T02:34:46.762Z,2.13
2023-03-31T02:35:46.803Z,2.12
2023-03-31T02:36:46.772Z,2.17
2023-03-31T02:37:46.768Z,2.15
2023-03-31T02:38:46.771Z,2.10
2023-03-31T02:39:46.768Z,2.12
2023-03-31T02:40:46.776Z,2.12
2023-03-31T02:41:46.745Z,2.17
2023-03-31T02:42:46.676Z,2.18
2023-03-31T02:43:46.608Z,2.18
2023-03-31T02:44:46.546Z,2.15
2023-03-31T02:45:46.562Z,2.14
2023-03-31T02:46:46.430Z,2.15
2023-03-31T02:47:46.387Z,2.10
2023-03-31T02:48:46.291Z,2.09
2023-03-31T02:49:46.222Z,2.13
2023-03-31T02:50:46.173Z,2.17
2023-03-31T02:51:46.116Z,2.16
2023-03-31T02:52:46.097Z,2.11
2023-03-31T02:53:46.096Z,2.13
2023-03-31T02:54:46.085Z,2.11
2023-03-31T02:55:46.097Z,2.06
2023-03-31T02:56:46.123Z,2.09
2023-03-31T02:57:46.115Z,2.00
2023-03-31T02:58:46.078Z,2.09
2023-03-31T02:59:46.082Z,2.04
2023-03-31T03:00:46.078Z,2.03
2023-03-31T03:01:46.140Z,2.04
2023-03-31T03:02:46.191Z,2.06
2023-03-31T03:03:46.080Z,2.00
2023-03-31T03:04:46.064Z,1.95
2023-03-31T03:05:46.081Z,1.96
2023-03-31T03:06:46.071Z,1.93
2023-03-31T03:07:46.075Z,1.93
2023-03-31T03:08:46.084Z,1.93
2023-03-31T03:09:46.088Z,1.95
2023-03-31T03:10:46.082Z,1.93
2023-03-31T03:11:46.080Z,1.89
2023-03-31T03:12:46.041Z,1.88
2023-03-31T03:13:46.049Z,1.94
2023-03-31T03:14:46.042Z,1.89
2023-03-31T03:15:46.050Z,1.85
2023-03-31T03:16:46.112Z,1.90
2023-03-31T03:17:46.101Z,1.88
2023-03-31T03:18:46.057Z,1.90
2023-03-31T03:19:46.051Z,1.88
2023-03-31T03:20:46.065Z,1.90
2023-03-31T03:21:46.056Z,1.87
2023-03-31T03:22:46.062Z,1.86
2023-03-31T03:23:46.066Z,1.85
2023-03-31T03:24:46.055Z,1.85
2023-03-31T03:25:46.071Z,1.83
2023-03-31T03:26:46.168Z,1.83
2023-03-31T03:27:46.066Z,1.84
2023-03-31T03:28:46.078Z,1.85
2023-03-31T03:29:46.066Z,1.85
2023-03-31T03:30:46.111Z,1.81
2023-03-31T03:31:46.067Z,1.85
2023-03-31T03:32:46.089Z,1.82
2023-03-31T03:33:46.053Z,1.78
2023-03-31T03:34:46.073Z,1.79
2023-03-31T03:35:46.134Z,1.83
2023-03-31T03:36:46.077Z,1.75
2023-03-31T03:37:46.083Z,1.80
2023-03-31T03:38:46.065Z,1.83
2023-03-31T03:39:46.098Z,1.80
2023-03-31T03:40:47.666Z,1.78
2023-03-31T03:41:45.989Z,1.78
2023-03-31T03:42:45.920Z,1.80
2023-03-31T03:43:45.852Z,1.79
2023-03-31T03:44:45.785Z,1.78
2023-03-31T03:45:45.723Z,1.76
2023-03-31T03:46:45.764Z,1.76
2023-03-31T03:47:45.638Z,1.77
2023-03-31T03:48:45.515Z,1.77
2023-03-31T03:49:45.448Z,1.77
2023-03-31T03:50:45.381Z,1.75
2023-03-31T03:51:45.316Z,1.73
2023-03-31T03:52:45.243Z,1.75
2023-03-31T03:53:45.154Z,1.76
2023-03-31T03:54:45.104Z,1.73
2023-03-31T03:55:45.019Z,1.73
2023-03-31T03:56:45.087Z,1.73
2023-03-31T03:57:44.980Z,1.74
2023-03-31T03:58:44.975Z,1.71
2023-03-31T03:59:44.976Z,1.74
2023-03-31T04:00:44.954Z,1.70
2023-03-31T04:01:44.998Z,1.70
2023-03-31T04:02:45.029Z,1.71
2023-03-31T04:03:44.954Z,1.65
2023-03-31T04:04:44.981Z,1.69
2023-03-31T04:05:44.974Z,1.67
2023-03-31T04:06:44.957Z,1.71
2023-03-31T04:07:44.932Z,1.68
2023-03-31T04:08:44.946Z,1.66
2023-03-31T04:09:44.932Z,1.67
2023-03-31T04:10:44.935Z,1.69
2023-03-31T04:11:44.933Z,1.67
2023-03-31T04:12:44.977Z,1.66
2023-03-31T04:13:44.921Z,1.65
2023-03-31T04:14:44.920Z,1.67
2023-03-31T04:15:44.969Z,1.68
2023-03-31T04:16:45.023Z,1.67
2023-03-31T04:17:44.965Z,1.67
2023-03-31T04:18:44.936Z,1.65
2023-03-31T04:19:44.925Z,1.67
2023-03-31T04:20:44.920Z,1.63
2023-03-31T04:21:44.929Z,1.63
2023-03-31T04:22:44.930Z,1.58
2023-03-31T04:23:44.918Z,1.58
2023-03-31T04:24:44.939Z,1.60
2023-03-31T04:25:44.950Z,1.59
2023-03-31T04:26:44.922Z,1.62
2023-03-31T04:27:44.932Z,1.57
2023-03-31T04:28:44.942Z,1.59
2023-03-31T04:29:44.908Z,1.54
2023-03-31T04:30:44.843Z,1.54
2023-03-31T04:31:44.849Z,1.55
2023-03-31T04:32:44.769Z,1.54
2023-03-31T04:33:44.643Z,1.53
2023-03-31T04:34:44.598Z,1.51
2023-03-31T04:35:44.536Z,1.52
2023-03-31T04:36:44.426Z,1.50
2023-03-31T04:37:44.376Z,1.51
2023-03-31T04:38:44.274Z,1.49
2023-03-31T04:39:44.274Z,1.51
2023-03-31T04:40:44.244Z,1.48
2023-03-31T04:41:44.228Z,1.49
2023-03-31T04:42:44.245Z,1.47
2023-03-31T04:43:44.216Z,1.49
2023-03-31T04:44:44.204Z,1.47
2023-03-31T04:45:44.265Z,1.46
2023-03-31T04:46:44.188Z,1.47
2023-03-31T04:47:44.188Z,1.45
2023-03-31T04:48:44.179Z,1.44
2023-03-31T04:49:44.165Z,1.45
2023-03-31T04:50:44.161Z,1.44
2023-03-31T04:51:44.160Z,1.40
2023-03-31T04:52:44.092Z,1.40
2023-03-31T04:53:44.016Z,1.41
2023-03-31T04:54:43.933Z,1.41
2023-03-31T04:55:43.865Z,1.40
2023-03-31T04:56:43.859Z,1.38
2023-03-31T04:57:43.700Z,1.40
2023-03-31T04:58:43.620Z,1.39
2023-03-31T04:59:43.554Z,1.39
2023-03-31T05:00:43.482Z,1.40
2023-03-31T05:01:43.519Z,1.38
2023-03-31T05:02:43.422Z,1.35
2023-03-31T05:03:43.272Z,1.36
2023-03-31T05:04:43.193Z,1.36
2023-03-31T05:05:43.109Z,1.36
2023-03-31T05:06:43.033Z,1.34
2023-03-31T05:07:42.962Z,1.37
2023-03-31T05:08:42.954Z,1.33
2023-03-31T05:09:42.947Z,1.33
2023-03-31T05:10:42.939Z,1.35
2023-03-31T05:11:42.945Z,1.31
2023-03-31T05:12:42.973Z,1.30
2023-03-31T05:13:42.937Z,1.33
2023-03-31T05:14:42.917Z,1.32
2023-03-31T05:15:42.904Z,1.32
2023-03-31T05:16:42.987Z,1.32
2023-03-31T05:17:42.933Z,1.31
2023-03-31T05:18:42.934Z,1.29
2023-03-31T05:19:42.910Z,1.32
2023-03-31T05:20:42.906Z,1.29
2023-03-31T05:21:42.885Z,1.30
2023-03-31T05:22:44.131Z,1.29
2023-03-31T05:23:42.942Z,1.28
2023-03-31T05:24:42.881Z,1.28
2023-03-31T05:25:42.893Z,1.32
2023-03-31T05:26:42.881Z,1.29
2023-03-31T05:27:42.886Z,1.28
2023-03-31T05:28:42.798Z,1.29
2023-03-31T05:29:42.765Z,1.29
2023-03-31T05:30:43.015Z,1.29
2023-03-31T05:31:42.733Z,1.29
2023-03-31T05:32:42.578Z,1.30
2023-03-31T05:33:42.555Z,1.30
2023-03-31T05:34:45.503Z,1.34
2023-03-31T05:35:42.319Z,1.34
2023-03-31T05:36:42.225Z,1.33
2023-03-31T05:37:42.194Z,1.33
2023-03-31T05:38:42.093Z,1.32
2023-03-31T05:39:42.050Z,1.33
2023-03-31T05:40:41.986Z,1.32
2023-03-31T05:41:41.887Z,1.31
2023-03-31T05:42:42.683Z,1.33
2023-03-31T05:43:41.730Z,1.32
2023-03-31T05:44:41.669Z,1.34
2023-03-31T05:45:41.605Z,1.32
2023-03-31T05:46:41.576Z,1.35
2023-03-31T05:47:41.552Z,1.34
2023-03-31T05:48:41.405Z,1.33
2023-03-31T05:49:41.359Z,1.35
2023-03-31T05:50:41.299Z,1.36
2023-03-31T05:51:41.195Z,1.37
2023-03-31T05:52:41.284Z,1.36
2023-03-31T05:53:41.290Z,1.40
2023-03-31T05:54:40.963Z,1.41
2023-03-31T05:55:40.893Z,1.43
2023-03-31T05:56:40.999Z,1.42
2023-03-31T05:57:40.834Z,1.47
2023-03-31T05:58:41.205Z,1.46
2023-03-31T05:59:40.633Z,1.45
2023-03-31T06:00:40.595Z,1.46
2023-03-31T06:01:40.585Z,1.50
2023-03-31T06:02:40.888Z,1.47
2023-03-31T06:03:40.617Z,1.51
2023-03-31T06:04:40.288Z,1.48
2023-03-31T06:05:41.218Z,1.50
2023-03-31T06:06:40.204Z,1.47
2023-03-31T06:07:40.207Z,1.48
2023-03-31T06:08:40.208Z,1.49
2023-03-31T06:09:40.181Z,1.46
2023-03-31T06:10:40.183Z,1.50
2023-03-31T06:11:40.207Z,1.49
2023-03-31T06:12:40.172Z,1.50
2023-03-31T06:13:40.191Z,1.52
2023-03-31T06:14:40.196Z,1.53
2023-03-31T06:15:40.334Z,1.54
2023-03-31T06:16:40.901Z,1.54
2023-03-31T06:17:40.072Z,1.54
2023-03-31T06:18:39.949Z,1.54
2023-03-31T06:19:39.907Z,1.56
2023-03-31T06:20:39.915Z,1.52
2023-03-31T06:21:39.956Z,1.52
2023-03-31T06:22:39.679Z,1.48
2023-03-31T06:23:39.663Z,1.50
2023-03-31T06:24:39.619Z,1.48
2023-03-31T06:25:50.334Z,1.48
2023-03-31T06:26:40.440Z,1.48
2023-03-31T06:27:39.310Z,1.49
2023-03-31T06:28:39.259Z,1.49
2023-03-31T06:29:39.190Z,1.52
2023-03-31T06:30:39.108Z,1.54
2023-03-31T06:31:39.106Z,1.51
2023-03-31T06:32:39.075Z,1.48
2023-03-31T06:33:38.914Z,1.48
2023-03-31T06:34:38.882Z,1.49
2023-03-31T06:35:38.887Z,1.48
2023-03-31T06:36:38.794Z,1.50
2023-03-31T06:37:38.638Z,1.55
2023-03-31T06:38:38.593Z,1.63
2023-03-31T06:39:38.519Z,1.74
2023-03-31T06:40:38.445Z,1.74
2023-03-31T06:41:38.348Z,1.71
2023-03-31T06:42:38.253Z,1.72
2023-03-31T06:43:38.305Z,1.73
2023-03-31T06:44:38.233Z,1.73
2023-03-31T06:45:38.244Z,1.71
2023-03-31T06:46:38.159Z,1.66
2023-03-31T06:47:38.309Z,1.58
2023-03-31T06:48:38.852Z,1.55
2023-03-31T06:49:38.193Z,1.65
2023-03-31T06:50:38.114Z,1.63
2023-03-31T06:51:38.149Z,1.72
2023-03-31T06:52:40.744Z,1.80
2023-03-31T06:53:38.060Z,1.83
2023-03-31T06:54:38.096Z,1.94
2023-03-31T06:55:38.752Z,1.96
2023-03-31T06:56:37.860Z,1.99
2023-03-31T06:57:37.786Z,1.99
2023-03-31T06:58:37.765Z,2.06
2023-03-31T06:59:37.659Z,2.00
2023-03-31T07:00:37.588Z,2.00
2023-03-31T07:01:37.727Z,1.56
2023-03-31T07:02:37.499Z,1.19
2023-03-31T07:03:37.431Z,0.92
2023-03-31T07:04:37.347Z,0.50
2023-03-31T07:05:37.259Z,0.36
2023-03-31T07:06:37.175Z,0.38
2023-03-31T07:07:37.204Z,0.44
2023-03-31T07:08:37.058Z,0.55
2023-03-31T07:09:37.006Z,0.70
2023-03-31T07:10:36.936Z,0.87
2023-03-31T07:11:37.128Z,0.91
2023-03-31T07:12:36.832Z,0.94
2023-03-31T07:13:36.768Z,1.15
2023-03-31T07:14:36.728Z,1.57
2023-03-31T07:15:36.638Z,1.64
2023-03-31T07:16:36.809Z,1.38
2023-03-31T07:17:36.529Z,1.37
2023-03-31T07:18:36.485Z,1.32
2023-03-31T07:19:36.369Z,1.33
2023-03-31T07:20:36.321Z,1.31
2023-03-31T07:21:36.227Z,1.47
2023-03-31T07:22:36.198Z,1.38
2023-03-31T07:23:36.182Z,1.32
2023-03-31T07:24:36.078Z,1.17
2023-03-31T07:25:36.055Z,1.11
2023-03-31T07:26:35.896Z,1.15
2023-03-31T07:27:35.822Z,1.10
2023-03-31T07:28:35.802Z,0.79
2023-03-31T07:29:35.713Z,0.72
2023-03-31T07:30:35.753Z,0.77
2023-03-31T07:31:35.650Z,0.75
2023-03-31T07:32:35.566Z,0.67
2023-03-31T07:33:35.440Z,0.67
2023-03-31T07:34:37.504Z,0.69
2023-03-31T07:35:35.402Z,0.77
2023-03-31T07:36:35.373Z,0.84
2023-03-31T07:37:35.369Z,0.89
2023-03-31T07:38:35.229Z,0.83
2023-03-31T07:39:35.172Z,0.80
2023-03-31T07:40:35.118Z,0.91
2023-03-31T07:41:35.076Z,0.99
2023-03-31T07:42:35.139Z,1.04
2023-03-31T07:43:35.257Z,1.27
2023-03-31T07:44:34.969Z,1.45
2023-03-31T07:45:35.180Z,1.64
2023-03-31T07:46:34.936Z,2.07
2023-03-31T07:47:34.959Z,2.50
2023-03-31T07:48:34.750Z,2.77
2023-03-31T07:49:34.685Z,2.92
2023-03-31T07:50:34.698Z,3.04
2023-03-31T07:51:34.580Z,3.24
2023-03-31T07:52:34.520Z,3.58
2023-03-31T07:53:34.490Z,3.83
2023-03-31T07:54:34.468Z,4.13
2023-03-31T07:55:34.452Z,4.14
2023-03-31T07:56:34.421Z,3.54
2023-03-31T07:57:34.562Z,3.68
2023-03-31T07:58:34.420Z,3.53
2023-03-31T07:59:34.422Z,2.24
2023-03-31T08:00:34.510Z,2.06
2023-03-31T08:01:35.291Z,1.74
2023-03-31T08:02:34.436Z,1.56
2023-03-31T08:03:34.417Z,1.28
2023-03-31T08:04:34.920Z,1.05
2023-03-31T08:05:35.181Z,0.85
2023-03-31T08:06:35.226Z,0.68
2023-03-31T08:07:35.354Z,0.49
2023-03-31T08:08:34.098Z,0.52
2023-03-31T08:09:34.206Z,0.52
2023-03-31T08:10:33.995Z,0.48
2023-03-31T08:11:33.932Z,0.52
2023-03-31T08:12:33.916Z,0.52
2023-03-31T08:13:34.821Z,0.38
2023-03-31T08:14:40.468Z,0.37
2023-03-31T08:15:34.659Z,0.35
2023-03-31T08:16:33.648Z,0.34
2023-03-31T08:17:33.564Z,0.34
2023-03-31T08:18:33.472Z,0.34
2023-03-31T08:19:33.364Z,0.34
2023-03-31T08:20:33.326Z,0.34
2023-03-31T08:21:33.230Z,0.37
2023-03-31T08:22:33.203Z,0.42
2023-03-31T08:23:33.161Z,0.50
2023-03-31T08:24:33.030Z,0.50
2023-03-31T08:25:32.987Z,0.50
2023-03-31T08:26:32.914Z,0.51
2023-03-31T08:27:33.787Z,0.51
2023-03-31T08:28:32.793Z,0.58
2023-03-31T08:29:32.705Z,0.50
2023-03-31T08:30:32.634Z,0.50
2023-03-31T08:31:32.601Z,0.51
2023-03-31T08:32:32.754Z,0.51
2023-03-31T08:33:32.472Z,0.51
2023-03-31T08:34:32.429Z,0.50
2023-03-31T08:35:32.373Z,0.50
2023-03-31T08:36:32.342Z,0.50
2023-03-31T08:37:32.358Z,0.51
2023-03-31T08:38:32.413Z,0.53
2023-03-31T08:39:32.299Z,0.50
2023-03-31T08:40:32.270Z,0.52
2023-03-31T08:41:32.281Z,0.53
2023-03-31T08:42:32.241Z,0.55
2023-03-31T08:43:32.285Z,0.60
2023-03-31T08:44:32.344Z,0.59
2023-03-31T08:45:32.298Z,0.59
2023-03-31T08:46:32.471Z,0.59
2023-03-31T08:47:32.298Z,0.63
2023-03-31T08:48:32.325Z,0.76
2023-03-31T08:49:32.201Z,0.67
2023-03-31T08:50:32.150Z,0.72
2023-03-31T08:51:32.117Z,0.77
2023-03-31T08:52:32.132Z,0.76
2023-03-31T08:53:32.316Z,0.77
2023-03-31T08:54:32.074Z,0.66
2023-03-31T08:55:32.070Z,0.62
2023-03-31T08:56:32.098Z,0.62
2023-03-31T08:57:32.125Z,0.68
2023-03-31T08:58:32.000Z,0.75
2023-03-31T08:59:31.976Z,0.76
2023-03-31T09:00:31.967Z,0.66
2023-03-31T09:01:35.823Z,0.66
2023-03-31T09:02:33.025Z,0.66
2023-03-31T09:03:31.962Z,0.66
2023-03-31T09:04:31.767Z,0.66
2023-03-31T09:05:31.689Z,0.68
2023-03-31T09:06:31.655Z,0.57
2023-03-31T09:07:31.576Z,0.65
2023-03-31T09:08:31.612Z,0.67
2023-03-31T09:09:31.420Z,0.56
2023-03-31T09:10:31.395Z,0.67
2023-03-31T09:11:31.324Z,0.80
2023-03-31T09:12:31.267Z,0.74
2023-03-31T09:13:31.173Z,0.86
2023-03-31T09:14:31.111Z,1.41
2023-03-31T09:15:31.038Z,1.92
2023-03-31T09:16:31.022Z,2.37
2023-03-31T09:17:30.953Z,2.25
2023-03-31T09:18:30.873Z,2.66
2023-03-31T09:19:30.778Z,2.92
2023-03-31T09:20:30.750Z,3.72
2023-03-31T09:21:30.657Z,4.20
2023-03-31T09:22:30.682Z,3.89
2023-03-31T09:23:30.508Z,4.40
2023-03-31T09:24:32.432Z,3.82
2023-03-31T09:25:30.490Z,4.69
2023-03-31T09:26:30.511Z,3.51
2023-03-31T09:27:31.332Z,4.45
2023-03-31T09:28:30.423Z,5.33
2023-03-31T09:29:30.378Z,6.77
2023-03-31T09:30:31.317Z,6.96
2023-03-31T09:31:30.415Z,5.05
2023-03-31T09:32:30.363Z,6.89
2023-03-31T09:33:30.339Z,9.70
2023-03-31T09:34:30.302Z,9.70
2023-03-31T09:35:30.256Z,9.29
2023-03-31T09:36:30.180Z,9.86
2023-03-31T09:37:30.069Z,11.06
2023-03-31T09:38:29.922Z,14.86
2023-03-31T09:39:29.903Z,16.71
2023-03-31T09:40:29.809Z,14.10
2023-03-31T09:41:30.204Z,13.44
2023-03-31T09:42:29.622Z,7.54
2023-03-31T09:43:29.564Z,6.99
2023-03-31T09:44:29.513Z,7.96
2023-03-31T09:45:29.530Z,9.91
2023-03-31T09:46:29.548Z,12.54
2023-03-31T09:47:29.508Z,9.13
2023-03-31T09:48:29.504Z,13.20
2023-03-31T09:49:29.431Z,8.72
2023-03-31T09:50:29.434Z,4.15
2023-03-31T09:51:29.440Z,3.51
2023-03-31T09:52:29.410Z,3.04
2023-03-31T09:53:29.378Z,1.93
2023-03-31T09:54:29.299Z,1.80
2023-03-31T09:55:39.627Z,1.59
2023-03-31T09:56:30.196Z,1.59
2023-03-31T09:57:31.358Z,1.27
2023-03-31T09:58:29.032Z,1.51
2023-03-31T09:59:28.973Z,1.28
2023-03-31T10:00:28.964Z,1.00
2023-03-31T10:01:28.842Z,1.02
2023-03-31T10:02:28.811Z,1.20
2023-03-31T10:03:28.710Z,0.80
2023-03-31T10:04:29.347Z,0.77
2023-03-31T10:05:28.587Z,0.79
2023-03-31T10:06:28.497Z,0.75
2023-03-31T10:07:28.423Z,0.82
2023-03-31T10:08:28.369Z,0.81
2023-03-31T10:09:28.298Z,0.71
2023-03-31T10:10:28.260Z,0.69
2023-03-31T10:11:28.167Z,0.86
2023-03-31T10:12:28.136Z,1.12
2023-03-31T10:13:28.042Z,1.44
2023-03-31T10:14:27.976Z,1.85
2023-03-31T10:15:27.906Z,2.33
2023-03-31T10:16:27.900Z,3.05
2023-03-31T10:17:27.884Z,4.14
2023-03-31T10:18:27.982Z,5.30
2023-03-31T10:19:27.664Z,6.78
2023-03-31T10:20:27.705Z,6.95
2023-03-31T10:21:27.546Z,8.14
2023-03-31T10:22:27.473Z,6.32
2023-03-31T10:23:27.405Z,7.36
2023-03-31T10:24:27.349Z,6.42
2023-03-31T10:25:27.268Z,8.15
2023-03-31T10:26:27.209Z,9.39
2023-03-31T10:27:27.150Z,7.80
2023-03-31T10:28:27.365Z,8.62
2023-03-31T10:29:27.028Z,9.51
2023-03-31T10:30:26.940Z,8.09
2023-03-31T10:31:27.106Z,6.08
2023-03-31T10:32:26.874Z,6.87
2023-03-31T10:33:26.810Z,7.58
2023-03-31T10:34:26.707Z,7.50
2023-03-31T10:35:26.827Z,8.79
2023-03-31T10:36:26.549Z,9.82
2023-03-31T10:37:26.471Z,11.60
2023-03-31T10:38:26.456Z,12.80
2023-03-31T10:39:26.814Z,14.21
2023-03-31T10:40:26.291Z,15.38
2023-03-31T10:41:26.209Z,8.27
2023-03-31T10:42:26.138Z,9.85
2023-03-31T10:43:26.025Z,11.90
2023-03-31T10:44:25.971Z,15.29
2023-03-31T10:45:36.329Z,18.87
2023-03-31T10:46:26.970Z,18.98
2023-03-31T10:47:25.817Z,19.96
2023-03-31T10:48:25.692Z,21.94
2023-03-31T10:49:25.625Z,26.25
2023-03-31T10:50:25.584Z,33.24
2023-03-31T10:51:25.500Z,36.86
2023-03-31T10:52:25.393Z,39.82
2023-03-31T10:53:25.343Z,44.32
2023-03-31T10:54:25.295Z,49.83
2023-03-31T10:55:25.223Z,46.14
2023-03-31T10:56:25.232Z,19.55
2023-03-31T10:57:25.311Z,6.64
2023-03-31T10:58:25.082Z,6.70
2023-03-31T10:59:25.090Z,6.71
2023-03-31T11:00:24.955Z,6.76
2023-03-31T11:01:24.915Z,6.94
2023-03-31T11:02:24.896Z,6.09
2023-03-31T11:03:24.808Z,5.85
2023-03-31T11:04:24.694Z,5.79
2023-03-31T11:05:24.664Z,4.46
2023-03-31T11:06:24.601Z,4.68
2023-03-31T11:07:24.541Z,5.73
2023-03-31T11:08:24.492Z,6.50
2023-03-31T11:09:24.419Z,7.43
2023-03-31T11:10:24.425Z,7.37
2023-03-31T11:11:24.295Z,6.44
2023-03-31T11:12:24.249Z,5.54
2023-03-31T11:13:24.250Z,4.03
2023-03-31T11:14:24.145Z,2.65
2023-03-31T11:15:24.127Z,2.86
2023-03-31T11:16:24.551Z,2.46
2023-03-31T11:17:24.060Z,2.01
2023-03-31T11:18:23.951Z,2.10
2023-03-31T11:19:23.900Z,1.90
2023-03-31T11:20:23.863Z,1.40
2023-03-31T11:21:23.797Z,1.14
2023-03-31T11:22:23.759Z,1.36
2023-03-31T11:23:23.760Z,1.37
2023-03-31T11:24:23.715Z,1.06
2023-03-31T11:25:23.731Z,1.09
2023-03-31T11:26:23.736Z,1.33
2023-03-31T11:27:23.767Z,1.53
2023-03-31T11:28:23.833Z,1.81
2023-03-31T11:29:23.746Z,2.13
2023-03-31T11:30:23.746Z,2.45
2023-03-31T11:31:23.823Z,2.89
2023-03-31T11:32:23.790Z,3.23
2023-03-31T11:33:23.794Z,3.75
2023-03-31T11:34:23.789Z,4.24
2023-03-31T11:35:23.814Z,4.52
2023-03-31T11:36:23.794Z,4.93
2023-03-31T11:37:23.787Z,5.51
2023-03-31T11:38:24.144Z,5.98
2023-03-31T11:39:23.761Z,6.79
2023-03-31T11:40:23.747Z,7.55
2023-03-31T11:41:23.736Z,7.92
2023-03-31T11:42:23.718Z,8.58
2023-03-31T11:43:23.671Z,9.23
2023-03-31T11:44:23.642Z,9.93
2023-03-31T11:45:23.608Z,10.73
2023-03-31T11:46:23.616Z,12.08
2023-03-31T11:47:23.541Z,12.31
2023-03-31T11:48:23.517Z,13.36
2023-03-31T11:49:23.471Z,14.23
2023-03-31T11:50:23.439Z,14.97
2023-03-31T11:51:23.408Z,15.64
2023-03-31T11:52:23.357Z,17.07
2023-03-31T11:53:23.310Z,17.65
2023-03-31T11:54:23.272Z,20.39
2023-03-31T11:55:23.239Z,21.59
2023-03-31T11:56:23.379Z,23.16
2023-03-31T11:57:23.240Z,24.13
2023-03-31T11:58:23.114Z,25.98
2023-03-31T11:59:23.041Z,27.26
2023-03-31T12:00:22.989Z,28.90
2023-03-31T12:01:22.943Z,29.83
2023-03-31T12:02:22.887Z,31.87
2023-03-31T12:03:22.891Z,32.61
2023-03-31T12:04:22.787Z,32.99
2023-03-31T12:05:22.783Z,33.09
2023-03-31T12:06:22.752Z,33.45
2023-03-31T12:07:22.616Z,34.42
2023-03-31T12:08:22.541Z,37.04
2023-03-31T12:09:22.484Z,41.54
2023-03-31T12:10:22.422Z,42.50
2023-03-31T12:11:22.388Z,43.50
2023-03-31T12:12:22.339Z,44.83
2023-03-31T12:13:22.220Z,46.99
2023-03-31T12:14:22.151Z,47.12
2023-03-31T12:15:22.092Z,48.34
2023-03-31T12:16:22.133Z,48.52
2023-03-31T12:17:22.016Z,50.32
2023-03-31T12:18:21.910Z,53.10
2023-03-31T12:19:21.855Z,54.36
2023-03-31T12:20:21.791Z,54.38
2023-03-31T12:21:21.692Z,55.51
2023-03-31T12:22:21.661Z,56.26
2023-03-31T12:23:21.588Z,56.79
2023-03-31T12:24:21.522Z,56.97
2023-03-31T12:25:21.471Z,58.16
2023-03-31T12:26:21.390Z,59.17
2023-03-31T12:27:21.366Z,60.49
2023-03-31T12:28:21.255Z,61.52
2023-03-31T12:29:21.187Z,62.87
2023-03-31T12:30:21.106Z,62.84
2023-03-31T12:31:21.112Z,63.53
2023-03-31T12:32:21.003Z,63.64
2023-03-31T12:33:20.889Z,63.78
2023-03-31T12:34:20.859Z,64.21
2023-03-31T12:35:20.759Z,65.04
2023-03-31T12:36:20.769Z,66.18
2023-03-31T12:37:20.662Z,69.08
2023-03-31T12:38:20.570Z,68.86
2023-03-31T12:39:20.492Z,69.43
2023-03-31T12:40:20.445Z,70.71
2023-03-31T12:41:20.346Z,70.49
2023-03-31T12:42:20.301Z,70.15
2023-03-31T12:43:20.197Z,71.00
2023-03-31T12:44:20.212Z,73.53
2023-03-31T12:45:20.102Z,72.98
2023-03-31T12:46:20.037Z,72.74
2023-03-31T12:47:19.974Z,71.08
2023-03-31T12:48:19.862Z,72.89
2023-03-31T12:49:19.797Z,73.14
2023-03-31T12:50:19.716Z,73.39
2023-03-31T12:51:19.638Z,73.97
2023-03-31T12:52:19.557Z,74.08
2023-03-31T12:53:19.500Z,74.17
2023-03-31T12:54:19.435Z,74.73
2023-03-31T12:55:19.362Z,76.20
2023-03-31T12:56:19.292Z,76.78
2023-03-31T12:57:19.295Z,77.10
2023-03-31T12:58:19.159Z,76.43
2023-03-31T12:59:19.904Z,76.84
2023-03-31T13:00:19.857Z,76.11
2023-03-31T13:01:19.071Z,75.40
2023-03-31T13:02:18.946Z,75.92
2023-03-31T13:03:18.866Z,75.76
2023-03-31T13:04:18.833Z,75.65
2023-03-31T13:05:18.809Z,75.29
2023-03-31T13:06:18.774Z,75.64
2023-03-31T13:07:28.414Z,75.56
2023-03-31T13:08:19.694Z,75.68
2023-03-31T13:09:18.630Z,75.88
2023-03-31T13:10:18.596Z,75.72
2023-03-31T13:11:18.476Z,75.82
2023-03-31T13:12:18.415Z,76.49
2023-03-31T13:13:18.328Z,75.89
2023-03-31T13:14:18.278Z,76.31